Greenwell Springs, LA

2:01 AM CST on December 15, 2019 (GMT -0600)
Northwoods | | Change Station
Active Advisory: Dense Fog Advisory

Elev 89 ft 30.55 °N, 91.00 °W | Updated 7 seconds ago

Overcast
Overcast
54.5 °F
Feels Like 54.5 °F
N
1.1
Wind Variable Wind from ESE
Gusts 1.1 mph

Today
High -- | Low -- °F
--% Chance of Precip.
Yesterday
High -- | Low -- °F
Precip. -- in
Pressure 29.93 in
Visibility 2.0 miles
Clouds Overcast 200 ft
Dew Point 54 °F
Humidity 99%
Rainfall 0.00 in
Snow Depth Not available.
6:53 AM 5:04 PM
Waning Gibbous, 89% visible
SPECI KBTR 150723Z AUTO 10005KT 2SM BR OVC002 13/12 A2993 RMK AO2 T01280122
Pressure 29.93 in
Visibility 2.0 miles
Clouds Overcast 200 ft
Dew Point 54 °F
Humidity 99%
Rainfall 0.00 in
Snow Depth Not available.
6:53 AM 5:04 PM
Waning Gibbous, 89% visible
SPECI KBTR 150723Z AUTO 10005KT 2SM BR OVC002 13/12 A2993 RMK AO2 T01280122

Get Your Daily Forecast Email!

Thanks for signing up!

Be on the lookout for a verification email in your inbox.

You'll start receiving severe weather alerts in your inbox..

×

10-Day Weather Forecast

Almanac

Astronomy

Dec. 15, 2019 Rise Set
Actual Time
Civil Twilight
Nautical Twilight
Astronomical Twilight
Moon
Length of Visible Light
Length of Day
Tomorrow will be .
, % of the Moon is Illuminated

Today's Extremes

State Highs State Lows

Community

WunderPhotos

Category 6

Welcome to Category 6. This is the collective home for Weather Underground's featured writeups by Dr. Jeff Masters (right), Bob Henson (left), Chris Burt, and other regular contributors.

Nearby

Air Quality

  Air Quality AQ Index Pollutant
Not available.

Snow Depth

Station Depth Elevation

Earthquake Activity

City Distance Mag. Time & Date
Minimum magnitude displayed is 2.5.

Coastal Water Temperatures

Place Temperature

Stations

Nearby Weather Stations

Station Location Temp. Windchill Dew Point Humidity Wind Precip. Elev Updated Type
                   

Watches & Warnings

Dense Fog Advisory
Issued: 10:07 PM CST Dec. 14, 2019 – National Weather Service

... Dense fog advisory in effect until 9 am CST Sunday...

* what... visibility one quarter mile or less in dense fog.

* Where... portions of southern Mississippi and southeast
Louisiana.

* When... until 9 am CST Sunday.

* Impacts... hazardous driving conditions due to low visibility.

* Additional details...

Precautionary/preparedness actions...

If driving, slow down, use your headlights, and leave plenty of
distance ahead of you.